sensor_id;sensor_type;location;lat;lon;timestamp;temperature;humidity
71237;DHT22;58984;51.960;5.582;2022-07-17T00:01:12;25.50;41.40
71237;DHT22;58984;51.960;5.582;2022-07-17T00:03:38;25.50;41.40
71237;DHT22;58984;51.960;5.582;2022-07-17T00:06:03;25.50;41.40
71237;DHT22;58984;51.960;5.582;2022-07-17T00:08:29;25.40;41.40
71237;DHT22;58984;51.960;5.582;2022-07-17T00:10:56;25.40;41.50
71237;DHT22;58984;51.960;5.582;2022-07-17T00:13:21;25.40;41.50
71237;DHT22;58984;51.960;5.582;2022-07-17T00:15:47;25.40;41.50
71237;DHT22;58984;51.960;5.582;2022-07-17T00:18:12;25.40;41.60
71237;DHT22;58984;51.960;5.582;2022-07-17T00:20:38;25.30;41.60
71237;DHT22;58984;51.960;5.582;2022-07-17T00:23:03;25.30;41.70
71237;DHT22;58984;51.960;5.582;2022-07-17T00:25:29;25.30;41.70
71237;DHT22;58984;51.960;5.582;2022-07-17T00:27:54;25.30;41.70
71237;DHT22;58984;51.960;5.582;2022-07-17T00:30:20;25.30;41.70
71237;DHT22;58984;51.960;5.582;2022-07-17T00:32:46;25.20;41.70
71237;DHT22;58984;51.960;5.582;2022-07-17T00:35:12;25.20;41.70
71237;DHT22;58984;51.960;5.582;2022-07-17T00:37:41;25.20;41.80
71237;DHT22;58984;51.960;5.582;2022-07-17T00:40:08;25.20;41.80
71237;DHT22;58984;51.960;5.582;2022-07-17T00:42:34;25.20;41.80
71237;DHT22;58984;51.960;5.582;2022-07-17T00:45:00;25.10;41.90
71237;DHT22;58984;51.960;5.582;2022-07-17T00:47:25;25.10;41.90
71237;DHT22;58984;51.960;5.582;2022-07-17T00:49:50;25.10;41.90
71237;DHT22;58984;51.960;5.582;2022-07-17T00:52:16;25.00;41.90
71237;DHT22;58984;51.960;5.582;2022-07-17T00:54:42;25.10;41.90
71237;DHT22;58984;51.960;5.582;2022-07-17T00:57:09;25.00;41.90
71237;DHT22;58984;51.960;5.582;2022-07-17T00:59:35;25.00;42.00
71237;DHT22;58984;51.960;5.582;2022-07-17T01:02:08;25.00;42.00
71237;DHT22;58984;51.960;5.582;2022-07-17T01:04:34;25.00;42.10
71237;DHT22;58984;51.960;5.582;2022-07-17T01:07:00;24.90;42.00
71237;DHT22;58984;51.960;5.582;2022-07-17T01:09:26;24.90;42.00
71237;DHT22;58984;51.960;5.582;2022-07-17T01:11:54;24.90;42.10
71237;DHT22;58984;51.960;5.582;2022-07-17T01:14:20;24.90;42.10
71237;DHT22;58984;51.960;5.582;2022-07-17T01:16:46;24.90;42.10
71237;DHT22;58984;51.960;5.582;2022-07-17T01:19:11;24.90;42.10
71237;DHT22;58984;51.960;5.582;2022-07-17T01:21:40;24.80;42.10
71237;DHT22;58984;51.960;5.582;2022-07-17T01:24:06;24.80;42.10
71237;DHT22;58984;51.960;5.582;2022-07-17T01:26:31;24.80;42.10
71237;DHT22;58984;51.960;5.582;2022-07-17T01:28:57;24.70;42.10
71237;DHT22;58984;51.960;5.582;2022-07-17T01:31:22;24.70;42.10
71237;DHT22;58984;51.960;5.582;2022-07-17T01:33:48;24.70;42.10
71237;DHT22;58984;51.960;5.582;2022-07-17T01:36:13;24.70;42.90
71237;DHT22;58984;51.960;5.582;2022-07-17T01:38:39;24.70;42.20
71237;DHT22;58984;51.960;5.582;2022-07-17T01:41:04;24.60;42.20
71237;DHT22;58984;51.960;5.582;2022-07-17T01:43:30;24.60;42.20
71237;DHT22;58984;51.960;5.582;2022-07-17T01:45:55;24.60;42.30
71237;DHT22;58984;51.960;5.582;2022-07-17T01:48:25;24.60;42.40
71237;DHT22;58984;51.960;5.582;2022-07-17T01:50:51;24.60;42.40
71237;DHT22;58984;51.960;5.582;2022-07-17T01:53:16;24.50;42.30
71237;DHT22;58984;51.960;5.582;2022-07-17T01:55:42;24.50;42.40
71237;DHT22;58984;51.960;5.582;2022-07-17T01:58:07;24.50;42.40
71237;DHT22;58984;51.960;5.582;2022-07-17T02:00:33;24.50;42.40
71237;DHT22;58984;51.960;5.582;2022-07-17T02:02:58;24.50;42.40
71237;DHT22;58984;51.960;5.582;2022-07-17T02:05:24;24.50;42.40
71237;DHT22;58984;51.960;5.582;2022-07-17T02:07:49;24.40;42.30
71237;DHT22;58984;51.960;5.582;2022-07-17T02:10:14;24.40;42.30
71237;DHT22;58984;51.960;5.582;2022-07-17T02:12:40;24.40;42.30
71237;DHT22;58984;51.960;5.582;2022-07-17T02:15:06;24.40;42.30
71237;DHT22;58984;51.960;5.582;2022-07-17T02:17:31;24.30;42.20
71237;DHT22;58984;51.960;5.582;2022-07-17T02:19:57;24.40;42.30
71237;DHT22;58984;51.960;5.582;2022-07-17T02:22:22;24.30;42.20
71237;DHT22;58984;51.960;5.582;2022-07-17T02:24:48;24.30;42.30
71237;DHT22;58984;51.960;5.582;2022-07-17T02:27:13;24.30;42.30
71237;DHT22;58984;51.960;5.582;2022-07-17T02:29:38;24.30;42.20
71237;DHT22;58984;51.960;5.582;2022-07-17T02:32:04;24.30;42.20
71237;DHT22;58984;51.960;5.582;2022-07-17T02:34:30;24.30;42.30
71237;DHT22;58984;51.960;5.582;2022-07-17T02:36:56;24.20;42.10
71237;DHT22;58984;51.960;5.582;2022-07-17T02:39:22;24.20;42.10
71237;DHT22;58984;51.960;5.582;2022-07-17T02:41:47;24.20;42.10
71237;DHT22;58984;51.960;5.582;2022-07-17T02:44:12;24.20;42.10
71237;DHT22;58984;51.960;5.582;2022-07-17T02:46:38;24.20;42.10
71237;DHT22;58984;51.960;5.582;2022-07-17T02:49:03;24.10;42.10
71237;DHT22;58984;51.960;5.582;2022-07-17T02:51:29;24.10;42.10
71237;DHT22;58984;51.960;5.582;2022-07-17T02:53:54;24.10;42.10
71237;DHT22;58984;51.960;5.582;2022-07-17T02:56:20;24.10;42.40
71237;DHT22;58984;51.960;5.582;2022-07-17T02:58:45;24.10;42.50
71237;DHT22;58984;51.960;5.582;2022-07-17T03:01:11;24.00;42.50
71237;DHT22;58984;51.960;5.582;2022-07-17T03:03:36;24.00;42.50
71237;DHT22;58984;51.960;5.582;2022-07-17T03:06:01;24.00;42.60
71237;DHT22;58984;51.960;5.582;2022-07-17T03:08:27;24.00;42.60
71237;DHT22;58984;51.960;5.582;2022-07-17T03:10:52;24.00;42.70
71237;DHT22;58984;51.960;5.582;2022-07-17T03:13:18;23.90;42.70
71237;DHT22;58984;51.960;5.582;2022-07-17T03:15:43;24.00;42.80
71237;DHT22;58984;51.960;5.582;2022-07-17T03:18:09;23.90;42.70
71237;DHT22;58984;51.960;5.582;2022-07-17T03:20:34;23.90;42.80
71237;DHT22;58984;51.960;5.582;2022-07-17T03:23:00;23.90;42.80
71237;DHT22;58984;51.960;5.582;2022-07-17T03:25:25;23.90;42.90
71237;DHT22;58984;51.960;5.582;2022-07-17T03:27:51;23.80;42.80
71237;DHT22;58984;51.960;5.582;2022-07-17T03:30:16;23.80;43.50
71237;DHT22;58984;51.960;5.582;2022-07-17T03:32:42;23.80;42.80
71237;DHT22;58984;51.960;5.582;2022-07-17T03:35:07;23.80;42.90
71237;DHT22;58984;51.960;5.582;2022-07-17T03:37:33;23.80;42.80
71237;DHT22;58984;51.960;5.582;2022-07-17T03:39:58;23.80;42.90
71237;DHT22;58984;51.960;5.582;2022-07-17T03:42:24;23.80;43.00
71237;DHT22;58984;51.960;5.582;2022-07-17T03:44:49;23.70;42.80
71237;DHT22;58984;51.960;5.582;2022-07-17T03:47:15;23.70;42.90
71237;DHT22;58984;51.960;5.582;2022-07-17T03:49:40;23.70;42.90
71237;DHT22;58984;51.960;5.582;2022-07-17T03:52:06;23.70;42.90
71237;DHT22;58984;51.960;5.582;2022-07-17T03:54:31;23.70;42.90
71237;DHT22;58984;51.960;5.582;2022-07-17T03:56:56;23.70;42.90
71237;DHT22;58984;51.960;5.582;2022-07-17T03:59:22;23.60;42.90
71237;DHT22;58984;51.960;5.582;2022-07-17T04:01:48;23.60;42.90
71237;DHT22;58984;51.960;5.582;2022-07-17T04:04:13;23.60;42.90
71237;DHT22;58984;51.960;5.582;2022-07-17T04:06:39;23.60;43.00
71237;DHT22;58984;51.960;5.582;2022-07-17T04:09:04;23.60;43.00
71237;DHT22;58984;51.960;5.582;2022-07-17T04:11:30;23.60;43.10
71237;DHT22;58984;51.960;5.582;2022-07-17T04:13:56;23.50;43.00
71237;DHT22;58984;51.960;5.582;2022-07-17T04:16:21;23.50;43.00
71237;DHT22;58984;51.960;5.582;2022-07-17T04:18:47;23.50;43.00
71237;DHT22;58984;51.960;5.582;2022-07-17T04:21:12;23.50;43.70
71237;DHT22;58984;51.960;5.582;2022-07-17T04:23:38;23.50;43.10
71237;DHT22;58984;51.960;5.582;2022-07-17T04:26:04;23.50;43.20
71237;DHT22;58984;51.960;5.582;2022-07-17T04:28:31;23.50;43.20
71237;DHT22;58984;51.960;5.582;2022-07-17T04:30:57;23.50;43.20
71237;DHT22;58984;51.960;5.582;2022-07-17T04:33:22;23.50;43.30
71237;DHT22;58984;51.960;5.582;2022-07-17T04:35:48;23.40;43.20
71237;DHT22;58984;51.960;5.582;2022-07-17T04:38:13;23.40;43.20
71237;DHT22;58984;51.960;5.582;2022-07-17T04:40:39;23.40;43.30
71237;DHT22;58984;51.960;5.582;2022-07-17T04:43:05;23.40;43.30
71237;DHT22;58984;51.960;5.582;2022-07-17T04:45:30;23.40;43.40
71237;DHT22;58984;51.960;5.582;2022-07-17T04:47:56;23.30;43.30
71237;DHT22;58984;51.960;5.582;2022-07-17T04:50:22;23.30;43.40
71237;DHT22;58984;51.960;5.582;2022-07-17T04:52:47;23.30;43.40
71237;DHT22;58984;51.960;5.582;2022-07-17T04:55:13;23.30;43.40
71237;DHT22;58984;51.960;5.582;2022-07-17T04:57:38;23.30;43.40
71237;DHT22;58984;51.960;5.582;2022-07-17T05:00:05;23.30;43.50
71237;DHT22;58984;51.960;5.582;2022-07-17T05:02:31;23.30;43.50
71237;DHT22;58984;51.960;5.582;2022-07-17T05:04:57;23.30;43.50
71237;DHT22;58984;51.960;5.582;2022-07-17T05:07:22;23.30;43.50
71237;DHT22;58984;51.960;5.582;2022-07-17T05:09:48;23.30;43.70
71237;DHT22;58984;51.960;5.582;2022-07-17T05:12:14;23.30;43.60
71237;DHT22;58984;51.960;5.582;2022-07-17T05:14:39;23.20;43.60
71237;DHT22;58984;51.960;5.582;2022-07-17T05:17:05;23.20;43.60
71237;DHT22;58984;51.960;5.582;2022-07-17T05:19:30;23.20;43.60
71237;DHT22;58984;51.960;5.582;2022-07-17T05:21:56;23.20;43.70
71237;DHT22;58984;51.960;5.582;2022-07-17T05:24:22;23.20;43.70
71237;DHT22;58984;51.960;5.582;2022-07-17T05:26:47;23.20;43.80
71237;DHT22;58984;51.960;5.582;2022-07-17T05:29:12;23.20;43.80
71237;DHT22;58984;51.960;5.582;2022-07-17T05:31:38;23.20;43.80
71237;DHT22;58984;51.960;5.582;2022-07-17T05:34:03;23.20;43.80
71237;DHT22;58984;51.960;5.582;2022-07-17T05:36:29;23.20;43.80
71237;DHT22;58984;51.960;5.582;2022-07-17T05:38:54;23.20;43.90
71237;DHT22;58984;51.960;5.582;2022-07-17T05:41:20;23.20;43.90
71237;DHT22;58984;51.960;5.582;2022-07-17T05:43:45;23.10;43.90
71237;DHT22;58984;51.960;5.582;2022-07-17T05:46:11;23.10;43.90
71237;DHT22;58984;51.960;5.582;2022-07-17T05:48:36;23.10;44.10
71237;DHT22;58984;51.960;5.582;2022-07-17T05:51:02;23.10;44.10
71237;DHT22;58984;51.960;5.582;2022-07-17T05:53:27;23.10;44.20
71237;DHT22;58984;51.960;5.582;2022-07-17T05:55:53;23.10;44.20
71237;DHT22;58984;51.960;5.582;2022-07-17T05:58:18;23.10;44.20
71237;DHT22;58984;51.960;5.582;2022-07-17T06:00:44;23.10;44.30
71237;DHT22;58984;51.960;5.582;2022-07-17T06:03:09;23.10;44.40
71237;DHT22;58984;51.960;5.582;2022-07-17T06:05:35;23.10;44.40
71237;DHT22;58984;51.960;5.582;2022-07-17T06:08:01;23.10;44.50
71237;DHT22;58984;51.960;5.582;2022-07-17T06:10:26;23.10;44.50
71237;DHT22;58984;51.960;5.582;2022-07-17T06:12:52;23.10;44.60
71237;DHT22;58984;51.960;5.582;2022-07-17T06:15:18;23.10;44.60
71237;DHT22;58984;51.960;5.582;2022-07-17T06:17:44;23.10;44.70
71237;DHT22;58984;51.960;5.582;2022-07-17T06:20:10;23.10;44.70
71237;DHT22;58984;51.960;5.582;2022-07-17T06:22:36;23.10;44.70
71237;DHT22;58984;51.960;5.582;2022-07-17T06:25:01;23.10;44.70
71237;DHT22;58984;51.960;5.582;2022-07-17T06:27:27;23.10;44.70
71237;DHT22;58984;51.960;5.582;2022-07-17T06:29:52;23.10;44.70
71237;DHT22;58984;51.960;5.582;2022-07-17T06:32:17;23.10;44.60
71237;DHT22;58984;51.960;5.582;2022-07-17T06:34:43;23.10;44.70
71237;DHT22;58984;51.960;5.582;2022-07-17T06:37:08;23.10;44.70
71237;DHT22;58984;51.960;5.582;2022-07-17T06:39:34;23.10;44.80
71237;DHT22;58984;51.960;5.582;2022-07-17T06:42:00;23.00;44.70
71237;DHT22;58984;51.960;5.582;2022-07-17T06:44:25;23.10;44.70
71237;DHT22;58984;51.960;5.582;2022-07-17T06:46:51;23.10;44.70
71237;DHT22;58984;51.960;5.582;2022-07-17T06:49:16;23.10;44.70
71237;DHT22;58984;51.960;5.582;2022-07-17T06:51:42;23.10;44.70
71237;DHT22;58984;51.960;5.582;2022-07-17T06:54:11;23.10;44.60
71237;DHT22;58984;51.960;5.582;2022-07-17T06:56:37;23.10;44.60
71237;DHT22;58984;51.960;5.582;2022-07-17T06:59:02;23.10;44.60
71237;DHT22;58984;51.960;5.582;2022-07-17T07:01:28;23.10;44.60
71237;DHT22;58984;51.960;5.582;2022-07-17T07:03:53;23.20;44.60
71237;DHT22;58984;51.960;5.582;2022-07-17T07:06:19;23.20;44.60
71237;DHT22;58984;51.960;5.582;2022-07-17T07:08:44;23.20;44.60
71237;DHT22;58984;51.960;5.582;2022-07-17T07:11:10;23.20;44.50
71237;DHT22;58984;51.960;5.582;2022-07-17T07:13:35;23.20;44.40
71237;DHT22;58984;51.960;5.582;2022-07-17T07:16:01;23.20;44.40
71237;DHT22;58984;51.960;5.582;2022-07-17T07:18:27;23.20;44.30
71237;DHT22;58984;51.960;5.582;2022-07-17T07:20:53;23.20;44.30
71237;DHT22;58984;51.960;5.582;2022-07-17T07:23:18;23.30;44.30
71237;DHT22;58984;51.960;5.582;2022-07-17T07:25:44;23.30;44.30
71237;DHT22;58984;51.960;5.582;2022-07-17T07:28:09;23.30;44.20
71237;DHT22;58984;51.960;5.582;2022-07-17T07:30:35;23.30;44.20
71237;DHT22;58984;51.960;5.582;2022-07-17T07:33:00;23.30;44.20
71237;DHT22;58984;51.960;5.582;2022-07-17T07:35:26;23.30;44.20
71237;DHT22;58984;51.960;5.582;2022-07-17T07:37:52;23.40;44.90
71237;DHT22;58984;51.960;5.582;2022-07-17T07:40:17;23.40;44.30
71237;DHT22;58984;51.960;5.582;2022-07-17T07:42:43;23.40;44.30
71237;DHT22;58984;51.960;5.582;2022-07-17T07:45:08;23.50;44.40
71237;DHT22;58984;51.960;5.582;2022-07-17T07:47:41;23.50;44.30
71237;DHT22;58984;51.960;5.582;2022-07-17T07:50:06;23.50;44.20
71237;DHT22;58984;51.960;5.582;2022-07-17T07:52:32;23.50;44.20
71237;DHT22;58984;51.960;5.582;2022-07-17T07:54:58;23.60;44.30
71237;DHT22;58984;51.960;5.582;2022-07-17T07:57:23;23.70;44.40
71237;DHT22;58984;51.960;5.582;2022-07-17T07:59:49;23.70;44.40
71237;DHT22;58984;51.960;5.582;2022-07-17T08:02:14;23.70;44.40
71237;DHT22;58984;51.960;5.582;2022-07-17T08:04:39;23.70;44.40
71237;DHT22;58984;51.960;5.582;2022-07-17T08:07:05;23.70;44.40
71237;DHT22;58984;51.960;5.582;2022-07-17T08:09:30;23.80;44.60
71237;DHT22;58984;51.960;5.582;2022-07-17T08:11:56;23.80;45.20
71237;DHT22;58984;51.960;5.582;2022-07-17T08:14:21;23.80;44.60
71237;DHT22;58984;51.960;5.582;2022-07-17T08:16:47;23.90;44.70
71237;DHT22;58984;51.960;5.582;2022-07-17T08:19:12;23.90;44.80
71237;DHT22;58984;51.960;5.582;2022-07-17T08:21:38;24.00;44.90
71237;DHT22;58984;51.960;5.582;2022-07-17T08:24:03;24.00;44.90
71237;DHT22;58984;51.960;5.582;2022-07-17T08:26:29;24.00;44.90
71237;DHT22;58984;51.960;5.582;2022-07-17T08:28:54;24.10;45.00
71237;DHT22;58984;51.960;5.582;2022-07-17T08:31:20;24.20;45.10
71237;DHT22;58984;51.960;5.582;2022-07-17T08:33:45;24.20;45.10
71237;DHT22;58984;51.960;5.582;2022-07-17T08:36:10;24.20;45.10
71237;DHT22;58984;51.960;5.582;2022-07-17T08:38:36;24.30;45.10
71237;DHT22;58984;51.960;5.582;2022-07-17T08:41:02;24.40;45.20
71237;DHT22;58984;51.960;5.582;2022-07-17T08:43:29;24.40;45.20
71237;DHT22;58984;51.960;5.582;2022-07-17T08:45:55;24.50;45.20
71237;DHT22;58984;51.960;5.582;2022-07-17T08:48:21;24.60;45.20
71237;DHT22;58984;51.960;5.582;2022-07-17T08:50:48;24.60;45.20
71237;DHT22;58984;51.960;5.582;2022-07-17T08:53:14;24.70;45.20
71237;DHT22;58984;51.960;5.582;2022-07-17T08:55:39;24.70;45.10
71237;DHT22;58984;51.960;5.582;2022-07-17T08:58:05;24.80;45.20
71237;DHT22;58984;51.960;5.582;2022-07-17T09:00:30;24.80;45.10
71237;DHT22;58984;51.960;5.582;2022-07-17T09:05:22;25.00;45.00
71237;DHT22;58984;51.960;5.582;2022-07-17T09:07:48;25.20;44.60
71237;DHT22;58984;51.960;5.582;2022-07-17T09:10:13;25.40;44.00
71237;DHT22;58984;51.960;5.582;2022-07-17T09:12:40;25.50;43.10
71237;DHT22;58984;51.960;5.582;2022-07-17T09:15:18;25.80;43.30
71237;DHT22;58984;51.960;5.582;2022-07-17T09:17:50;25.80;43.30
71237;DHT22;58984;51.960;5.582;2022-07-17T09:20:16;25.90;43.30
71237;DHT22;58984;51.960;5.582;2022-07-17T09:22:42;25.90;43.30
71237;DHT22;58984;51.960;5.582;2022-07-17T09:25:07;26.00;43.40
71237;DHT22;58984;51.960;5.582;2022-07-17T09:27:33;26.00;43.40
71237;DHT22;58984;51.960;5.582;2022-07-17T09:30:00;26.10;43.50
71237;DHT22;58984;51.960;5.582;2022-07-17T09:32:30;26.10;43.50
71237;DHT22;58984;51.960;5.582;2022-07-17T09:34:56;26.10;43.70
71237;DHT22;58984;51.960;5.582;2022-07-17T09:37:22;26.20;44.00
71237;DHT22;58984;51.960;5.582;2022-07-17T09:39:49;26.20;44.10
71237;DHT22;58984;51.960;5.582;2022-07-17T09:42:31;26.30;44.40
71237;DHT22;58984;51.960;5.582;2022-07-17T09:44:57;26.30;44.10
71237;DHT22;58984;51.960;5.582;2022-07-17T09:47:23;26.30;44.20
71237;DHT22;58984;51.960;5.582;2022-07-17T09:49:48;26.30;44.20
71237;DHT22;58984;51.960;5.582;2022-07-17T09:52:15;26.40;44.30
71237;DHT22;58984;51.960;5.582;2022-07-17T09:54:41;26.50;44.40
71237;DHT22;58984;51.960;5.582;2022-07-17T09:57:06;26.50;44.40
71237;DHT22;58984;51.960;5.582;2022-07-17T09:59:33;26.60;44.50
71237;DHT22;58984;51.960;5.582;2022-07-17T10:02:00;26.60;44.40
71237;DHT22;58984;51.960;5.582;2022-07-17T10:04:26;26.70;44.40
71237;DHT22;58984;51.960;5.582;2022-07-17T10:06:51;26.70;44.40
71237;DHT22;58984;51.960;5.582;2022-07-17T10:09:18;26.80;44.50
71237;DHT22;58984;51.960;5.582;2022-07-17T10:11:43;26.80;44.50
71237;DHT22;58984;51.960;5.582;2022-07-17T10:14:09;26.90;44.60
71237;DHT22;58984;51.960;5.582;2022-07-17T10:16:36;26.90;44.60
71237;DHT22;58984;51.960;5.582;2022-07-17T10:19:14;27.00;44.70
71237;DHT22;58984;51.960;5.582;2022-07-17T10:21:39;27.00;44.70
71237;DHT22;58984;51.960;5.582;2022-07-17T10:24:16;27.10;44.70
71237;DHT22;58984;51.960;5.582;2022-07-17T10:26:42;27.10;44.70
71237;DHT22;58984;51.960;5.582;2022-07-17T10:31:51;27.20;44.80
71237;DHT22;58984;51.960;5.582;2022-07-17T10:34:17;27.30;44.90
71237;DHT22;58984;51.960;5.582;2022-07-17T10:36:43;27.30;44.90
71237;DHT22;58984;51.960;5.582;2022-07-17T10:39:19;27.40;45.10
71237;DHT22;58984;51.960;5.582;2022-07-17T10:41:57;27.50;44.30
71237;DHT22;58984;51.960;5.582;2022-07-17T10:44:27;27.40;44.80
71237;DHT22;58984;51.960;5.582;2022-07-17T10:46:53;27.50;45.00
71237;DHT22;58984;51.960;5.582;2022-07-17T10:49:18;27.50;45.00
71237;DHT22;58984;51.960;5.582;2022-07-17T10:51:45;27.60;45.00
71237;DHT22;58984;51.960;5.582;2022-07-17T10:54:11;27.70;45.00
71237;DHT22;58984;51.960;5.582;2022-07-17T10:56:36;27.70;45.00
71237;DHT22;58984;51.960;5.582;2022-07-17T10:59:04;27.80;44.90
71237;DHT22;58984;51.960;5.582;2022-07-17T11:01:30;27.80;44.80
71237;DHT22;58984;51.960;5.582;2022-07-17T11:03:57;27.90;44.80
71237;DHT22;58984;51.960;5.582;2022-07-17T11:06:27;27.90;45.00
71237;DHT22;58984;51.960;5.582;2022-07-17T11:08:55;28.00;44.80
71237;DHT22;58984;51.960;5.582;2022-07-17T11:11:22;28.00;44.90
71237;DHT22;58984;51.960;5.582;2022-07-17T11:13:48;28.10;44.80
71237;DHT22;58984;51.960;5.582;2022-07-17T11:16:27;28.10;45.40
71237;DHT22;58984;51.960;5.582;2022-07-17T11:18:53;28.20;44.80
71237;DHT22;58984;51.960;5.582;2022-07-17T11:21:19;28.30;44.80
71237;DHT22;58984;51.960;5.582;2022-07-17T11:23:51;28.30;44.90
71237;DHT22;58984;51.960;5.582;2022-07-17T11:26:17;28.40;44.90
71237;DHT22;58984;51.960;5.582;2022-07-17T11:28:43;28.40;44.90
71237;DHT22;58984;51.960;5.582;2022-07-17T11:36:18;28.50;45.00
71237;DHT22;58984;51.960;5.582;2022-07-17T11:38:44;28.60;45.00
71237;DHT22;58984;51.960;5.582;2022-07-17T11:41:10;28.60;45.00
71237;DHT22;58984;51.960;5.582;2022-07-17T11:43:39;28.70;45.10
71237;DHT22;58984;51.960;5.582;2022-07-17T11:46:05;28.70;45.10
71237;DHT22;58984;51.960;5.582;2022-07-17T11:48:31;28.70;45.10
71237;DHT22;58984;51.960;5.582;2022-07-17T11:50:57;28.80;45.20
71237;DHT22;58984;51.960;5.582;2022-07-17T11:53:33;28.80;45.10
71237;DHT22;58984;51.960;5.582;2022-07-17T11:55:59;28.90;45.20
71237;DHT22;58984;51.960;5.582;2022-07-17T11:58:25;28.90;45.20
71237;DHT22;58984;51.960;5.582;2022-07-17T12:00:59;29.00;45.30
71237;DHT22;58984;51.960;5.582;2022-07-17T12:03:25;29.00;45.00
71237;DHT22;58984;51.960;5.582;2022-07-17T12:05:50;29.10;45.00
71237;DHT22;58984;51.960;5.582;2022-07-17T12:08:19;29.10;45.00
71237;DHT22;58984;51.960;5.582;2022-07-17T12:10:45;29.10;45.00
71237;DHT22;58984;51.960;5.582;2022-07-17T12:13:13;29.20;44.90
71237;DHT22;58984;51.960;5.582;2022-07-17T12:15:46;29.20;44.80
71237;DHT22;58984;51.960;5.582;2022-07-17T12:18:26;29.30;44.80
71237;DHT22;58984;51.960;5.582;2022-07-17T12:20:53;29.30;44.90
71237;DHT22;58984;51.960;5.582;2022-07-17T12:23:26;29.30;44.80
71237;DHT22;58984;51.960;5.582;2022-07-17T12:26:02;29.40;44.80
71237;DHT22;58984;51.960;5.582;2022-07-17T12:28:27;29.40;44.90
71237;DHT22;58984;51.960;5.582;2022-07-17T12:30:53;29.40;44.90
71237;DHT22;58984;51.960;5.582;2022-07-17T12:33:18;29.50;44.90
71237;DHT22;58984;51.960;5.582;2022-07-17T12:35:44;29.50;44.80
71237;DHT22;58984;51.960;5.582;2022-07-17T12:38:09;29.60;44.80
71237;DHT22;58984;51.960;5.582;2022-07-17T12:40:35;29.60;45.00
71237;DHT22;58984;51.960;5.582;2022-07-17T12:43:00;29.60;44.80
71237;DHT22;58984;51.960;5.582;2022-07-17T12:45:25;29.70;45.30
71237;DHT22;58984;51.960;5.582;2022-07-17T12:47:51;29.70;44.90
71237;DHT22;58984;51.960;5.582;2022-07-17T12:50:16;29.70;44.90
71237;DHT22;58984;51.960;5.582;2022-07-17T12:52:42;29.80;44.90
71237;DHT22;58984;51.960;5.582;2022-07-17T12:55:08;29.80;44.80
71237;DHT22;58984;51.960;5.582;2022-07-17T12:57:33;29.80;44.80
71237;DHT22;58984;51.960;5.582;2022-07-17T12:59:59;29.90;44.80
71237;DHT22;58984;51.960;5.582;2022-07-17T13:02:24;29.90;44.70
71237;DHT22;58984;51.960;5.582;2022-07-17T13:04:50;29.90;44.70
71237;DHT22;58984;51.960;5.582;2022-07-17T13:07:15;29.90;44.60
71237;DHT22;58984;51.960;5.582;2022-07-17T13:09:41;29.90;44.60
71237;DHT22;58984;51.960;5.582;2022-07-17T13:12:06;29.90;44.60
71237;DHT22;58984;51.960;5.582;2022-07-17T13:14:32;30.00;44.50
71237;DHT22;58984;51.960;5.582;2022-07-17T13:16:57;30.00;44.60
71237;DHT22;58984;51.960;5.582;2022-07-17T13:19:23;30.00;44.60
71237;DHT22;58984;51.960;5.582;2022-07-17T13:21:49;30.10;44.50
71237;DHT22;58984;51.960;5.582;2022-07-17T13:24:14;30.10;44.60
71237;DHT22;58984;51.960;5.582;2022-07-17T13:26:40;30.10;44.50
71237;DHT22;58984;51.960;5.582;2022-07-17T13:29:05;30.10;44.60
71237;DHT22;58984;51.960;5.582;2022-07-17T13:31:31;30.10;44.60
71237;DHT22;58984;51.960;5.582;2022-07-17T13:33:57;30.10;44.60
71237;DHT22;58984;51.960;5.582;2022-07-17T13:36:22;30.10;44.60
71237;DHT22;58984;51.960;5.582;2022-07-17T13:38:48;30.10;44.40
71237;DHT22;58984;51.960;5.582;2022-07-17T13:41:13;30.10;44.40
71237;DHT22;58984;51.960;5.582;2022-07-17T13:43:39;30.10;44.40
71237;DHT22;58984;51.960;5.582;2022-07-17T13:46:04;30.20;44.30
71237;DHT22;58984;51.960;5.582;2022-07-17T13:48:30;30.20;44.40
71237;DHT22;58984;51.960;5.582;2022-07-17T13:50:55;30.20;44.30
71237;DHT22;58984;51.960;5.582;2022-07-17T13:53:21;30.20;44.40
71237;DHT22;58984;51.960;5.582;2022-07-17T13:55:47;30.20;44.30
71237;DHT22;58984;51.960;5.582;2022-07-17T13:58:12;30.20;44.20
71237;DHT22;58984;51.960;5.582;2022-07-17T14:00:37;30.20;44.20
71237;DHT22;58984;51.960;5.582;2022-07-17T14:03:03;30.20;44.30
71237;DHT22;58984;51.960;5.582;2022-07-17T14:05:29;30.20;44.30
71237;DHT22;58984;51.960;5.582;2022-07-17T14:07:54;30.20;44.30
71237;DHT22;58984;51.960;5.582;2022-07-17T14:10:20;30.30;44.30
71237;DHT22;58984;51.960;5.582;2022-07-17T14:12:45;30.20;44.00
71237;DHT22;58984;51.960;5.582;2022-07-17T14:15:10;30.30;44.10
71237;DHT22;58984;51.960;5.582;2022-07-17T14:17:36;30.30;44.10
71237;DHT22;58984;51.960;5.582;2022-07-17T14:20:02;30.30;44.00
71237;DHT22;58984;51.960;5.582;2022-07-17T14:22:28;30.30;44.00
71237;DHT22;58984;51.960;5.582;2022-07-17T14:24:53;30.30;44.20
71237;DHT22;58984;51.960;5.582;2022-07-17T14:27:18;30.30;44.20
71237;DHT22;58984;51.960;5.582;2022-07-17T14:29:44;30.30;44.00
71237;DHT22;58984;51.960;5.582;2022-07-17T14:32:10;30.30;44.10
71237;DHT22;58984;51.960;5.582;2022-07-17T14:34:35;30.30;44.10
71237;DHT22;58984;51.960;5.582;2022-07-17T14:37:01;30.30;44.10
71237;DHT22;58984;51.960;5.582;2022-07-17T14:39:28;30.30;44.10
71237;DHT22;58984;51.960;5.582;2022-07-17T14:41:54;30.30;44.20
71237;DHT22;58984;51.960;5.582;2022-07-17T14:44:19;30.30;44.10
71237;DHT22;58984;51.960;5.582;2022-07-17T14:46:45;30.30;44.10
71237;DHT22;58984;51.960;5.582;2022-07-17T14:49:10;30.30;44.10
71237;DHT22;58984;51.960;5.582;2022-07-17T14:51:36;30.30;44.10
71237;DHT22;58984;51.960;5.582;2022-07-17T14:54:01;30.30;44.10
71237;DHT22;58984;51.960;5.582;2022-07-17T14:56:27;30.30;44.10
71237;DHT22;58984;51.960;5.582;2022-07-17T14:58:52;30.30;44.00
71237;DHT22;58984;51.960;5.582;2022-07-17T15:01:18;30.30;44.00
71237;DHT22;58984;51.960;5.582;2022-07-17T15:03:43;30.30;44.00
71237;DHT22;58984;51.960;5.582;2022-07-17T15:06:09;30.30;43.90
71237;DHT22;58984;51.960;5.582;2022-07-17T15:08:34;30.20;43.80
71237;DHT22;58984;51.960;5.582;2022-07-17T15:11:01;30.20;43.80
71237;DHT22;58984;51.960;5.582;2022-07-17T15:13:27;30.20;43.80
71237;DHT22;58984;51.960;5.582;2022-07-17T15:15:52;30.20;43.80
71237;DHT22;58984;51.960;5.582;2022-07-17T15:18:18;30.20;43.90
71237;DHT22;58984;51.960;5.582;2022-07-17T15:20:43;30.20;43.90
71237;DHT22;58984;51.960;5.582;2022-07-17T15:23:09;30.20;43.90
71237;DHT22;58984;51.960;5.582;2022-07-17T15:25:34;30.20;43.90
71237;DHT22;58984;51.960;5.582;2022-07-17T15:28:00;30.20;44.00
71237;DHT22;58984;51.960;5.582;2022-07-17T15:30:26;30.20;44.00
71237;DHT22;58984;51.960;5.582;2022-07-17T15:32:51;30.20;43.90